createdAt,value
2017-12-29T00:00:33.655Z,968.1
2017-12-29T00:01:41.136Z,968.2
2017-12-29T00:02:45.001Z,968.3
2017-12-29T00:03:48.246Z,968.3
2017-12-29T00:04:50.694Z,968.2
2017-12-29T00:05:53.289Z,968.3
2017-12-29T00:06:56.171Z,968.3
2017-12-29T00:08:00.836Z,968.1
2017-12-29T00:09:05.165Z,968.3
2017-12-29T00:10:09.775Z,968.1
2017-12-29T00:11:16.644Z,968.4
2017-12-29T00:12:22.646Z,968.3
2017-12-29T00:13:29.462Z,967.9
2017-12-29T00:14:32.938Z,968.4
2017-12-29T00:15:37.027Z,968.4
2017-12-29T00:16:44.025Z,968.4
2017-12-29T00:17:48.733Z,968.4
2017-12-29T00:18:51.815Z,968.4
2017-12-29T00:19:56.374Z,968.4
2017-12-29T00:21:01.248Z,968.4
2017-12-29T00:22:07.098Z,968.2
2017-12-29T00:23:13.558Z,968.4
2017-12-29T00:24:20.179Z,968.5
2017-12-29T00:25:22.616Z,968.5
2017-12-29T00:26:26.695Z,968.5
2017-12-29T00:27:32.934Z,968.1
2017-12-29T00:28:35.347Z,968.5
2017-12-29T00:28:56.670Z,968.1
2017-12-29T00:30:00.805Z,968.4
2017-12-29T00:31:05.694Z,968.2
2017-12-29T00:32:09.630Z,968.4
2017-12-29T00:33:13.406Z,968.5
2017-12-29T00:34:19.082Z,968.5
2017-12-29T00:35:22.073Z,968.5
2017-12-29T00:36:24.639Z,968.6
2017-12-29T00:37:27.809Z,968.6
2017-12-29T00:38:32.581Z,968.5
2017-12-29T00:39:36.441Z,968.6
2017-12-29T00:40:39.674Z,968.7
2017-12-29T00:41:43.971Z,968.6
2017-12-29T00:42:48.163Z,968.7
2017-12-29T00:43:51.784Z,968.7
2017-12-29T00:44:54.962Z,968.7
2017-12-29T00:45:58.410Z,968.6
2017-12-29T00:47:02.743Z,968.4
2017-12-29T00:48:05.552Z,968.7
2017-12-29T00:49:08.796Z,968.7
2017-12-29T00:50:11.924Z,968.8
2017-12-29T00:51:18.644Z,968.8
2017-12-29T00:52:22.669Z,968.5
2017-12-29T00:53:27.157Z,968.3
2017-12-29T00:54:31.236Z,968.8
2017-12-29T00:55:34.177Z,968.9
2017-12-29T00:56:37.978Z,968.7
2017-12-29T00:57:40.996Z,968.9
2017-12-29T00:58:46.371Z,968.9
2017-12-29T00:59:51.703Z,968.9
2017-12-29T01:00:55.320Z,968.8
2017-12-29T01:02:00.778Z,968.9
2017-12-29T01:03:04.339Z,968.9
2017-12-29T01:04:07.801Z,968.9
2017-12-29T01:05:10.277Z,968.9
2017-12-29T01:06:14.499Z,968.7
2017-12-29T01:07:20.160Z,969
2017-12-29T01:08:28.130Z,968.9
2017-12-29T01:09:33.302Z,969
2017-12-29T01:10:39.646Z,969
2017-12-29T01:11:42.710Z,969
2017-12-29T01:12:46.047Z,969
2017-12-29T01:13:49.089Z,968.8
2017-12-29T01:15:00.952Z,968.7
2017-12-29T01:16:04.904Z,969
2017-12-29T01:17:13.826Z,969
2017-12-29T01:18:17.260Z,969
2017-12-29T01:19:20.367Z,969
2017-12-29T01:20:25.151Z,969.1
2017-12-29T01:21:29.055Z,969
2017-12-29T01:22:31.739Z,969.1
2017-12-29T01:23:34.290Z,969
2017-12-29T01:24:36.880Z,968.9
2017-12-29T01:25:39.687Z,969.1
2017-12-29T01:26:44.471Z,969.2
2017-12-29T01:27:49.571Z,969.2
2017-12-29T01:28:55.979Z,969.1
2017-12-29T01:30:01.558Z,969.2
2017-12-29T01:31:06.814Z,969.1
2017-12-29T01:32:09.837Z,969.2
2017-12-29T01:33:13.809Z,968.9
2017-12-29T01:34:18.051Z,969.2
2017-12-29T01:35:24.998Z,969.1
2017-12-29T01:36:29.998Z,968.9
2017-12-29T01:37:36.948Z,969.2
2017-12-29T01:38:44.744Z,968.9
2017-12-29T01:39:50.208Z,969.1
2017-12-29T01:40:56.318Z,968.9
2017-12-29T01:42:01.446Z,969.2
2017-12-29T01:43:09.667Z,969.2
2017-12-29T01:44:16.028Z,969.1
2017-12-29T01:45:21.565Z,969.2
2017-12-29T01:46:28.923Z,969.2
2017-12-29T01:47:33.763Z,968.9
2017-12-29T01:48:39.618Z,969.2
2017-12-29T01:49:42.407Z,969.2
2017-12-29T01:50:44.920Z,969.1
2017-12-29T01:51:50.400Z,968.9
2017-12-29T01:52:55.336Z,969.1
2017-12-29T01:53:59.909Z,969.2
2017-12-29T01:55:04.212Z,969.1
2017-12-29T01:56:07.123Z,969.2
2017-12-29T01:57:09.700Z,969.2
2017-12-29T01:58:12.525Z,969.2
2017-12-29T01:59:16.425Z,969.2
2017-12-29T02:00:18.954Z,969.2
2017-12-29T02:01:21.461Z,969.2
2017-12-29T02:02:27.760Z,969.1
2017-12-29T02:03:32.852Z,969.2
2017-12-29T02:04:38.360Z,969.2
2017-12-29T02:05:46.914Z,968.9
2017-12-29T02:06:49.473Z,969.1
2017-12-29T02:07:56.032Z,969.2
2017-12-29T02:09:01.216Z,968.7
2017-12-29T02:10:04.696Z,969.2
2017-12-29T02:11:10.256Z,969.1
2017-12-29T02:12:14.668Z,969.2
2017-12-29T02:13:18.133Z,969.1
2017-12-29T02:14:21.588Z,969.2
2017-12-29T02:15:25.838Z,969.2
2017-12-29T02:16:30.709Z,968.7
2017-12-29T02:17:34.693Z,969.2
2017-12-29T02:18:38.870Z,969.2
2017-12-29T02:19:43.733Z,969
2017-12-29T02:20:48.629Z,969.2
2017-12-29T02:21:53.563Z,969.3
2017-12-29T02:23:01.868Z,969.3
2017-12-29T02:24:06.151Z,969.3
2017-12-29T02:25:08.708Z,969.3
2017-12-29T02:26:24.899Z,969.3
2017-12-29T02:27:29.119Z,969.3
2017-12-29T02:28:32.402Z,969.4
2017-12-29T02:29:37.287Z,969.4
2017-12-29T02:30:42.540Z,969.4
2017-12-29T02:31:47.467Z,969.4
2017-12-29T02:32:50.871Z,969.4
2017-12-29T02:33:57.088Z,969.2
2017-12-29T02:34:59.990Z,969.5
2017-12-29T02:36:05.635Z,969.4
2017-12-29T02:37:12.827Z,969.4
2017-12-29T02:38:18.797Z,969.4
2017-12-29T02:40:36.072Z,969.2
2017-12-29T02:41:39.764Z,969.5
2017-12-29T02:42:43.737Z,968.9
2017-12-29T02:43:49.090Z,969.4
2017-12-29T02:44:54.431Z,969.3
2017-12-29T02:46:00.733Z,969.5
2017-12-29T02:47:06.310Z,969.6
2017-12-29T02:48:10.781Z,969.6
2017-12-29T02:49:13.234Z,969.6
2017-12-29T02:50:16.920Z,969.6
2017-12-29T02:51:25.840Z,969.6
2017-12-29T02:52:32.486Z,969.6
2017-12-29T02:53:35.095Z,969.6
2017-12-29T02:54:39.393Z,969.4
2017-12-29T02:55:41.870Z,969.6
2017-12-29T02:56:44.381Z,969.7
2017-12-29T02:57:46.971Z,969.7
2017-12-29T02:58:51.789Z,969.7
2017-12-29T02:59:58.559Z,969.6
2017-12-29T03:01:03.248Z,969.4
2017-12-29T03:02:09.028Z,969.7
2017-12-29T03:03:16.976Z,969.6
2017-12-29T03:04:22.214Z,969.6
2017-12-29T03:05:27.797Z,969.7
2017-12-29T03:06:32.689Z,969.7
2017-12-29T03:07:37.717Z,969.7
2017-12-29T03:08:41.270Z,969.7
2017-12-29T03:09:44.981Z,969.7
2017-12-29T03:10:49.372Z,969.6
2017-12-29T03:11:53.790Z,969.6
2017-12-29T03:12:58.026Z,969.7
2017-12-29T03:14:02.230Z,969.6
2017-12-29T03:15:07.107Z,969.6
2017-12-29T03:16:11.239Z,969.7
2017-12-29T03:17:16.254Z,969.4
2017-12-29T03:18:20.344Z,969.7
2017-12-29T03:19:24.862Z,969.6
2017-12-29T03:20:29.326Z,969.7
2017-12-29T03:21:34.476Z,969.6
2017-12-29T03:22:37.810Z,969.6
2017-12-29T03:23:42.196Z,969.5
2017-12-29T03:24:45.655Z,969.6
2017-12-29T03:25:49.350Z,969.6
2017-12-29T03:26:51.932Z,969.6
2017-12-29T03:27:56.546Z,969.5
2017-12-29T03:29:00.226Z,969.5
2017-12-29T03:30:05.446Z,969.3
2017-12-29T03:31:10.303Z,969.5
2017-12-29T03:32:17.712Z,969.5
2017-12-29T03:33:26.731Z,969.5
2017-12-29T03:34:31.264Z,969.5
2017-12-29T03:35:35.821Z,969.5
2017-12-29T03:36:45.255Z,969
2017-12-29T03:37:50.496Z,969.5
2017-12-29T03:38:55.511Z,969.3
2017-12-29T03:40:00.842Z,969.6
2017-12-29T03:41:08.533Z,969.4
2017-12-29T03:42:14.196Z,969.4
2017-12-29T03:43:20.225Z,969.7
2017-12-29T03:44:26.564Z,969.6
2017-12-29T03:45:31.568Z,969.7
2017-12-29T03:46:36.253Z,969.7
2017-12-29T03:47:40.438Z,969.7
2017-12-29T03:48:44.875Z,969.7
2017-12-29T03:49:51.301Z,969.7
2017-12-29T03:50:57.989Z,969.2
2017-12-29T03:52:02.706Z,969.8
2017-12-29T03:53:08.881Z,969.7
2017-12-29T03:54:14.445Z,969.8
2017-12-29T03:55:18.544Z,969.8
2017-12-29T03:56:21.099Z,969.8
2017-12-29T03:57:26.624Z,969.8
2017-12-29T03:58:30.987Z,969.8
2017-12-29T03:59:35.331Z,969.8
2017-12-29T04:00:37.856Z,969.8
2017-12-29T04:01:40.408Z,969.8
2017-12-29T04:02:42.895Z,969.8
2017-12-29T04:03:45.475Z,969.7
2017-12-29T04:04:47.952Z,969.8
2017-12-29T04:05:50.463Z,969.8
2017-12-29T04:06:55.998Z,969.8
2017-12-29T04:08:00.071Z,969.8
2017-12-29T04:09:04.975Z,969.8
2017-12-29T04:10:07.464Z,969.7
2017-12-29T04:11:10.011Z,969.8
2017-12-29T04:12:13.861Z,969.8
2017-12-29T04:13:19.950Z,969.5
2017-12-29T04:14:26.069Z,969.8
2017-12-29T04:15:32.163Z,969.8
2017-12-29T04:16:37.045Z,969.8
2017-12-29T04:17:40.522Z,969.9
2017-12-29T04:18:50.652Z,969.8
2017-12-29T04:19:55.906Z,969.3
2017-12-29T04:21:02.471Z,969.9
2017-12-29T04:22:07.131Z,969.6
2017-12-29T04:23:13.578Z,969.9
2017-12-29T04:24:18.321Z,969.6
2017-12-29T04:25:23.851Z,969.4
2017-12-29T04:26:27.943Z,969.8
2017-12-29T04:27:34.119Z,969.9
2017-12-29T04:28:36.674Z,970
2017-12-29T04:29:39.194Z,969.6
2017-12-29T04:30:41.687Z,969.9
2017-12-29T04:31:44.206Z,969.9
2017-12-29T04:32:46.810Z,969.9
2017-12-29T04:33:49.331Z,969.9
2017-12-29T04:34:51.834Z,969.9
2017-12-29T04:35:54.340Z,969.9
2017-12-29T04:36:56.862Z,969.9
2017-12-29T04:37:59.332Z,969.9
2017-12-29T04:39:01.894Z,969.9
2017-12-29T04:40:04.376Z,969.9
2017-12-29T04:41:06.948Z,970
2017-12-29T04:42:09.547Z,969.9
2017-12-29T04:43:12.025Z,970
2017-12-29T04:44:14.509Z,969.9
2017-12-29T04:45:17.081Z,970
2017-12-29T04:46:19.610Z,969.9
2017-12-29T04:47:22.117Z,970
2017-12-29T04:48:24.579Z,970
2017-12-29T04:49:27.168Z,970.1
2017-12-29T04:50:29.656Z,970
2017-12-29T04:51:32.435Z,970
2017-12-29T04:52:34.952Z,970
2017-12-29T04:53:37.452Z,970.1
2017-12-29T04:54:39.924Z,970
2017-12-29T04:55:42.368Z,970.1
2017-12-29T04:56:44.873Z,970
2017-12-29T04:57:47.525Z,970
2017-12-29T04:58:49.997Z,970
2017-12-29T04:59:52.512Z,970.1
2017-12-29T05:00:54.983Z,970.1
2017-12-29T05:01:57.484Z,970.1
2017-12-29T05:02:59.970Z,969.7
2017-12-29T05:04:02.568Z,970
2017-12-29T05:05:05.064Z,970
2017-12-29T05:06:07.559Z,970
2017-12-29T05:07:10.078Z,970
2017-12-29T05:08:12.548Z,970
2017-12-29T05:09:14.990Z,970
2017-12-29T05:10:17.536Z,969.9
2017-12-29T05:11:20.055Z,970
2017-12-29T05:12:22.561Z,970
2017-12-29T05:13:25.013Z,970
2017-12-29T05:14:27.477Z,969.9
2017-12-29T05:15:30.066Z,970
2017-12-29T05:16:32.533Z,970
2017-12-29T05:17:34.974Z,969.9
2017-12-29T05:18:37.530Z,970
2017-12-29T05:19:40.017Z,970
2017-12-29T05:20:42.537Z,970
2017-12-29T05:21:44.987Z,970
2017-12-29T05:22:47.539Z,970
2017-12-29T05:23:49.991Z,970
2017-12-29T05:24:52.536Z,970
2017-12-29T05:25:55.059Z,970
2017-12-29T05:26:57.511Z,970
2017-12-29T05:28:00.006Z,970
2017-12-29T05:29:02.726Z,970
2017-12-29T05:30:05.479Z,970
2017-12-29T05:31:08.088Z,970
2017-12-29T05:32:10.569Z,970.1
2017-12-29T05:33:13.042Z,970
2017-12-29T05:34:15.538Z,970
2017-12-29T05:35:18.123Z,970
2017-12-29T05:36:20.602Z,970
2017-12-29T05:37:23.053Z,970
2017-12-29T05:38:25.537Z,970
2017-12-29T05:39:28.060Z,970
2017-12-29T05:40:30.585Z,970
2017-12-29T05:41:33.016Z,970.1
2017-12-29T05:42:35.452Z,970
2017-12-29T05:43:38.424Z,970.1
2017-12-29T05:44:40.977Z,970.1
2017-12-29T05:45:43.468Z,970.1
2017-12-29T05:46:45.930Z,970.1
2017-12-29T05:47:48.478Z,970.2
2017-12-29T05:48:50.976Z,970.2
2017-12-29T05:49:53.532Z,970.2
2017-12-29T05:50:56.032Z,970.3
2017-12-29T05:51:58.562Z,970.2
2017-12-29T05:53:01.065Z,970.3
2017-12-29T05:54:03.609Z,970.3
2017-12-29T05:55:06.076Z,970.3
2017-12-29T05:56:08.626Z,970.3
2017-12-29T05:57:11.106Z,970.4
2017-12-29T05:58:13.575Z,970.4
2017-12-29T05:59:16.157Z,970.4
2017-12-29T06:00:18.725Z,970.4
2017-12-29T06:01:23.810Z,970.4
2017-12-29T06:02:26.295Z,970.4
2017-12-29T06:03:28.774Z,970.4
2017-12-29T06:04:31.235Z,970.5
2017-12-29T06:05:33.737Z,970.4
2017-12-29T06:06:36.222Z,970.5
2017-12-29T06:07:38.778Z,970.5
2017-12-29T06:08:41.250Z,970.5
2017-12-29T06:09:43.744Z,970.5
2017-12-29T06:10:46.216Z,970.5
2017-12-29T06:11:48.816Z,970.5
2017-12-29T06:12:51.278Z,970.5
2017-12-29T06:13:53.746Z,970.5
2017-12-29T06:14:56.274Z,970.5
2017-12-29T06:16:01.747Z,970.4
2017-12-29T06:17:04.251Z,970.4
2017-12-29T06:18:06.755Z,970.5
2017-12-29T06:19:09.223Z,970.4
2017-12-29T06:20:11.709Z,970.2
2017-12-29T06:21:14.156Z,970.5
2017-12-29T06:22:18.604Z,970.3
2017-12-29T06:23:21.128Z,970.5
2017-12-29T06:24:23.650Z,970.6
2017-12-29T06:25:26.114Z,970.4
2017-12-29T06:26:28.627Z,970.6
2017-12-29T06:27:31.070Z,970.5
2017-12-29T06:28:33.539Z,970.6
2017-12-29T06:29:36.087Z,970.6
2017-12-29T06:30:38.678Z,970.6
2017-12-29T06:31:41.186Z,970.7
2017-12-29T06:32:49.175Z,970.7
2017-12-29T06:33:51.786Z,970.6
2017-12-29T06:34:54.317Z,970.6
2017-12-29T06:35:56.878Z,970.4
2017-12-29T06:36:59.503Z,970.6
2017-12-29T06:38:02.047Z,970.6
2017-12-29T06:39:04.529Z,970.7
2017-12-29T06:40:06.986Z,970.7
2017-12-29T06:41:09.552Z,970.7
2017-12-29T06:42:12.144Z,970.7
2017-12-29T06:43:14.728Z,970.7
2017-12-29T06:44:17.371Z,970.7
2017-12-29T06:45:19.895Z,970.8
2017-12-29T06:46:22.541Z,970.8
2017-12-29T06:47:25.023Z,970.8
2017-12-29T06:48:27.687Z,970.9
2017-12-29T06:49:30.215Z,970.9
2017-12-29T06:50:32.984Z,970.9
2017-12-29T06:51:35.607Z,970.9
2017-12-29T06:52:38.096Z,970.8
2017-12-29T06:53:40.647Z,970.9
2017-12-29T06:54:43.106Z,970.6
2017-12-29T06:55:45.604Z,970.9
2017-12-29T06:56:48.054Z,970.8
2017-12-29T06:57:50.620Z,970.9
2017-12-29T06:58:53.144Z,971
2017-12-29T06:59:55.678Z,971
2017-12-29T07:00:58.302Z,970.9
2017-12-29T07:02:00.990Z,971.1
2017-12-29T07:03:03.610Z,971
2017-12-29T07:04:06.122Z,971
2017-12-29T07:05:08.777Z,971
2017-12-29T07:06:11.219Z,970.9
2017-12-29T07:07:13.707Z,971.1
2017-12-29T07:08:16.319Z,971.1
2017-12-29T07:09:18.995Z,971
2017-12-29T07:10:21.460Z,971
2017-12-29T07:11:23.971Z,971.1
2017-12-29T07:12:32.550Z,971.1
2017-12-29T07:13:35.035Z,971.1
2017-12-29T07:14:37.600Z,971.1
2017-12-29T07:15:40.164Z,971.1
2017-12-29T07:16:42.703Z,971.1
2017-12-29T07:17:45.336Z,971.2
2017-12-29T07:18:47.915Z,971.1
2017-12-29T07:19:50.501Z,971.1
2017-12-29T07:20:53.024Z,971.2
2017-12-29T07:21:55.525Z,971.2
2017-12-29T07:22:58.336Z,971.1
2017-12-29T07:24:00.869Z,971.2
2017-12-29T07:25:03.510Z,971.2
2017-12-29T07:26:06.022Z,971.2
2017-12-29T07:27:08.749Z,971.2
2017-12-29T07:28:12.961Z,971.2
2017-12-29T07:29:15.547Z,971.2
2017-12-29T07:30:18.124Z,971.3
2017-12-29T07:31:20.691Z,971.2
2017-12-29T07:32:23.173Z,971.3
2017-12-29T07:33:25.776Z,971.3
2017-12-29T07:34:28.257Z,971.4
2017-12-29T07:35:30.831Z,971.4
2017-12-29T07:36:34.271Z,971.1
2017-12-29T07:37:36.761Z,971.3
2017-12-29T07:38:39.469Z,971.4
2017-12-29T07:39:42.218Z,971.3
2017-12-29T07:40:44.698Z,971.4
2017-12-29T07:41:47.212Z,971.3
2017-12-29T07:42:49.829Z,971.5
2017-12-29T07:43:52.276Z,971.4
2017-12-29T07:44:54.840Z,971.4
2017-12-29T07:45:57.453Z,971.4
2017-12-29T07:46:59.965Z,971.5
2017-12-29T07:48:02.503Z,971.4
2017-12-29T07:49:05.472Z,971.4
2017-12-29T07:50:08.022Z,971.4
2017-12-29T07:51:10.530Z,971.4
2017-12-29T07:52:13.259Z,971.4
2017-12-29T07:53:16.290Z,971.4
2017-12-29T07:54:18.970Z,971.5
2017-12-29T07:55:26.756Z,971.5
2017-12-29T07:56:29.384Z,971.4
2017-12-29T07:57:32.018Z,971.5
2017-12-29T07:58:34.558Z,971.4
2017-12-29T07:59:37.049Z,971.4
2017-12-29T08:00:39.672Z,971.4
2017-12-29T08:01:42.137Z,971
2017-12-29T08:02:44.673Z,971.4
2017-12-29T08:03:47.168Z,971.2
2017-12-29T08:04:49.780Z,971.4
2017-12-29T08:05:52.240Z,971.4
2017-12-29T08:06:54.715Z,971.2
2017-12-29T08:07:57.200Z,971.4
2017-12-29T08:08:59.811Z,971.4
2017-12-29T08:10:02.446Z,971.4
2017-12-29T08:11:04.972Z,971.4
2017-12-29T08:12:07.599Z,971.5
2017-12-29T08:13:10.250Z,971.4
2017-12-29T08:14:12.869Z,971.4
2017-12-29T08:15:15.467Z,971.4
2017-12-29T08:16:23.266Z,971.4
2017-12-29T08:17:25.743Z,971.4
2017-12-29T08:18:28.302Z,971.4
2017-12-29T08:19:30.834Z,971.4
2017-12-29T08:20:45.659Z,971.4
2017-12-29T08:21:48.177Z,971.4
2017-12-29T08:22:50.755Z,971.1
2017-12-29T08:23:53.308Z,971.4
2017-12-29T08:24:55.828Z,971.5
2017-12-29T08:25:58.486Z,971.5
2017-12-29T08:27:01.052Z,971.4
2017-12-29T08:28:04.019Z,971.5
2017-12-29T08:29:06.570Z,971.6
2017-12-29T08:30:09.309Z,971.5
2017-12-29T08:31:11.904Z,971.5
2017-12-29T08:32:14.516Z,971.5
2017-12-29T08:33:17.035Z,971.4
2017-12-29T08:34:19.766Z,971.5
2017-12-29T08:35:22.256Z,971.3
2017-12-29T08:36:25.333Z,971.5
2017-12-29T08:37:27.985Z,971.5
2017-12-29T08:38:30.582Z,971.4
2017-12-29T08:39:33.128Z,971.4
2017-12-29T08:40:35.703Z,971.4
2017-12-29T08:41:38.436Z,971.4
2017-12-29T08:42:40.978Z,971.3
2017-12-29T08:43:45.792Z,971.4
2017-12-29T08:44:48.457Z,971.4
2017-12-29T08:45:50.955Z,971.4
2017-12-29T08:46:53.567Z,971.4
2017-12-29T08:47:56.178Z,971.4
2017-12-29T08:48:58.803Z,971.4
2017-12-29T08:50:01.452Z,971.3
2017-12-29T08:51:03.985Z,971.3
2017-12-29T08:52:06.781Z,971.3
2017-12-29T08:53:09.497Z,971.4
2017-12-29T08:54:13.310Z,971.4
2017-12-29T08:55:18.305Z,971.4
2017-12-29T08:56:22.147Z,971.4
2017-12-29T08:57:26.130Z,971.4
2017-12-29T08:58:32.142Z,971.4
2017-12-29T08:59:41.125Z,971.5
2017-12-29T09:00:45.708Z,971.5
2017-12-29T09:01:49.809Z,971.5
2017-12-29T09:02:54.677Z,971.6
2017-12-29T09:03:59.212Z,971.6
2017-12-29T09:05:04.383Z,971.5
2017-12-29T09:06:09.125Z,971.5
2017-12-29T09:07:13.157Z,971.5
2017-12-29T09:08:18.151Z,971.5
2017-12-29T09:09:22.950Z,971.5
2017-12-29T09:10:26.944Z,971.5
2017-12-29T09:11:31.754Z,971.5
2017-12-29T09:12:37.316Z,971.5
2017-12-29T09:13:41.394Z,971.5
2017-12-29T09:14:45.295Z,971.5
2017-12-29T09:15:49.457Z,971.5
2017-12-29T09:16:58.653Z,971.5
2017-12-29T09:18:03.266Z,971.5
2017-12-29T09:19:08.122Z,971.5
2017-12-29T09:20:11.976Z,971.4
2017-12-29T09:21:16.395Z,971.5
2017-12-29T09:22:20.171Z,971.5
2017-12-29T09:23:23.685Z,971.4
2017-12-29T09:24:27.060Z,971.4
2017-12-29T09:25:29.813Z,971.2
2017-12-29T09:26:32.806Z,971.4
2017-12-29T09:27:37.552Z,971.5
2017-12-29T09:28:40.137Z,971.5
2017-12-29T09:29:43.120Z,971.5
2017-12-29T09:30:46.647Z,971.5
2017-12-29T09:31:50.087Z,971.4
2017-12-29T09:32:52.756Z,971.4
2017-12-29T09:33:55.356Z,971.3
2017-12-29T09:34:58.153Z,971.4
2017-12-29T09:36:00.974Z,971.1
2017-12-29T09:37:03.507Z,971.3
2017-12-29T09:38:06.126Z,971.4
2017-12-29T09:39:09.038Z,971.4
2017-12-29T09:40:11.750Z,971.4
2017-12-29T09:41:21.534Z,971.5
2017-12-29T09:42:24.068Z,971.5
2017-12-29T09:43:26.660Z,971.4
2017-12-29T09:44:29.345Z,971.4
2017-12-29T09:45:31.906Z,971.4
2017-12-29T09:46:34.565Z,971.4
2017-12-29T09:47:37.208Z,971.3
2017-12-29T09:48:39.818Z,971.3
2017-12-29T09:49:42.360Z,971.3
2017-12-29T09:50:45.015Z,971.2
2017-12-29T09:51:47.649Z,971.2
2017-12-29T09:52:50.360Z,971.1
2017-12-29T09:53:52.979Z,971.2
2017-12-29T09:54:55.755Z,971.1
2017-12-29T09:55:58.883Z,970.9
2017-12-29T09:57:01.493Z,971.1
2017-12-29T09:58:07.398Z,970.7
2017-12-29T09:59:10.218Z,971.1
2017-12-29T10:00:18.268Z,971.1
2017-12-29T10:01:20.870Z,971.1
2017-12-29T10:02:31.611Z,971.1
2017-12-29T10:03:34.224Z,971.1
2017-12-29T10:04:36.744Z,971.1
2017-12-29T10:05:40.914Z,971.1
2017-12-29T10:17:44.911Z,970.1
2017-12-29T10:22:29.717Z,970.9
2017-12-29T10:23:32.458Z,970.8
2017-12-29T10:24:35.568Z,970.9
2017-12-29T10:25:38.427Z,970.9
2017-12-29T10:26:41.043Z,970.8
2017-12-29T10:27:43.666Z,970.7
2017-12-29T10:28:46.795Z,970.7
2017-12-29T10:29:49.866Z,970.8
2017-12-29T10:30:52.484Z,970.8
2017-12-29T10:31:55.189Z,970.8
2017-12-29T10:32:57.826Z,970.8
2017-12-29T10:34:00.728Z,970.8
2017-12-29T10:35:04.986Z,970.6
2017-12-29T10:36:07.763Z,970.8
2017-12-29T10:37:10.536Z,970.8
2017-12-29T10:38:14.304Z,970.8
2017-12-29T10:39:18.004Z,970.7
2017-12-29T10:40:21.120Z,970.7
2017-12-29T10:41:23.831Z,970.6
2017-12-29T10:42:26.833Z,970.7
2017-12-29T10:44:48.519Z,970.7
2017-12-29T10:45:51.239Z,970.7
2017-12-29T10:46:53.947Z,970.8
2017-12-29T10:47:56.713Z,970.7
2017-12-29T10:48:59.672Z,970.5
2017-12-29T10:50:02.326Z,970.7
2017-12-29T10:51:05.008Z,970.8
2017-12-29T10:52:07.900Z,970.8
2017-12-29T10:53:10.737Z,970.8
2017-12-29T10:54:18.282Z,970.8
2017-12-29T10:55:22.440Z,970.7
2017-12-29T10:56:29.278Z,970.7
2017-12-29T10:57:31.906Z,970.7
2017-12-29T10:58:34.643Z,970.8
2017-12-29T10:59:37.356Z,970.7
2017-12-29T11:00:40.091Z,970.6
2017-12-29T11:01:42.706Z,970.7
2017-12-29T11:02:45.405Z,970.7
2017-12-29T11:03:48.127Z,970.5
2017-12-29T11:04:51.652Z,970.7
2017-12-29T11:05:54.331Z,970.7
2017-12-29T11:06:56.946Z,970.7
2017-12-29T11:07:59.659Z,970.6
2017-12-29T11:09:02.431Z,970.4
2017-12-29T11:10:06.251Z,970.6
2017-12-29T11:11:09.287Z,970.6
2017-12-29T11:12:12.021Z,970.5
2017-12-29T11:13:14.850Z,970.5
2017-12-29T11:14:17.447Z,970.5
2017-12-29T11:15:20.241Z,970.3
2017-12-29T11:16:22.874Z,970.5
2017-12-29T11:17:25.479Z,970.5
2017-12-29T11:18:33.456Z,970.5
2017-12-29T11:19:36.163Z,970.4
2017-12-29T11:20:38.932Z,970.5
2017-12-29T11:21:41.670Z,970.4
2017-12-29T11:22:44.348Z,970.4
2017-12-29T11:23:59.098Z,970.4
2017-12-29T11:25:02.904Z,970.4
2017-12-29T11:26:06.122Z,970.1
2017-12-29T11:27:09.083Z,970.4
2017-12-29T11:28:13.095Z,970.3
2017-12-29T11:29:15.700Z,970.3
2017-12-29T11:30:24.577Z,970.3
2017-12-29T11:31:27.522Z,970.3
2017-12-29T11:32:31.940Z,970.2
2017-12-29T11:33:34.482Z,970.3
2017-12-29T11:34:37.224Z,970.3
2017-12-29T11:35:46.651Z,970.2
2017-12-29T11:36:49.492Z,970.3
2017-12-29T11:37:52.419Z,970.1
2017-12-29T11:38:55.043Z,970.3
2017-12-29T11:39:57.837Z,970.2
2017-12-29T11:41:06.689Z,970.2
2017-12-29T11:42:09.505Z,970.3
2017-12-29T11:43:12.369Z,970.3
2017-12-29T11:44:15.269Z,970.3
2017-12-29T11:45:17.977Z,970.3
2017-12-29T11:46:20.806Z,970.2
2017-12-29T11:47:28.093Z,969.8
2017-12-29T11:48:31.107Z,969.9
2017-12-29T11:49:34.104Z,970.1
2017-12-29T11:50:45.294Z,969.8
2017-12-29T11:51:56.670Z,970
2017-12-29T11:53:04.957Z,969.8
2017-12-29T11:54:09.657Z,970
2017-12-29T11:55:13.280Z,970
2017-12-29T11:56:22.582Z,969.9
2017-12-29T11:57:25.682Z,970
2017-12-29T11:58:34.597Z,969.7
2017-12-29T11:59:37.490Z,970
2017-12-29T12:00:40.930Z,970
2017-12-29T12:01:49.823Z,969.8
2017-12-29T12:02:52.978Z,970
2017-12-29T12:03:55.932Z,969.9
2017-12-29T12:04:59.042Z,969.9
2017-12-29T12:06:02.079Z,969.9
2017-12-29T12:07:14.923Z,969.7
2017-12-29T12:08:17.682Z,969.9
2017-12-29T12:09:20.579Z,969.9
2017-12-29T12:10:23.452Z,969.9
2017-12-29T12:11:26.387Z,969.9
2017-12-29T12:12:40.647Z,969.8
2017-12-29T12:13:44.316Z,969.8
2017-12-29T12:14:47.300Z,969.7
2017-12-29T12:15:51.436Z,969.8
2017-12-29T12:16:54.603Z,969.8
2017-12-29T12:17:57.478Z,969.8
2017-12-29T12:19:00.656Z,969.7
2017-12-29T12:20:03.447Z,969.8
2017-12-29T12:21:06.601Z,969.5
2017-12-29T12:22:09.499Z,969.8
2017-12-29T12:23:12.260Z,969.7
2017-12-29T12:24:14.916Z,969.6
2017-12-29T12:25:17.730Z,969.6
2017-12-29T12:26:20.448Z,969.6
2017-12-29T12:27:23.288Z,969.6
2017-12-29T12:28:26.366Z,969.6
2017-12-29T12:29:29.050Z,969.6
2017-12-29T12:30:31.725Z,969.6
2017-12-29T12:31:34.574Z,969.6
2017-12-29T12:32:37.248Z,969.5
2017-12-29T12:33:40.091Z,969.5
2017-12-29T12:34:42.980Z,969.4
2017-12-29T12:35:45.748Z,969.5
2017-12-29T12:36:48.691Z,969.6
2017-12-29T12:37:51.530Z,969.5
2017-12-29T12:38:54.695Z,969.5
2017-12-29T12:39:57.406Z,969.5
2017-12-29T12:41:00.626Z,969.5
2017-12-29T12:42:03.384Z,969.4
2017-12-29T12:43:06.186Z,969.4
2017-12-29T12:44:09.106Z,969.4
2017-12-29T12:45:11.844Z,969.5
2017-12-29T12:46:14.518Z,969.4
2017-12-29T12:47:17.240Z,969.1
2017-12-29T12:48:20.051Z,969.3
2017-12-29T12:49:22.643Z,969.4
2017-12-29T12:50:25.458Z,969.4
2017-12-29T12:51:28.405Z,969.3
2017-12-29T12:52:31.479Z,969.3
2017-12-29T12:53:34.250Z,969.3
2017-12-29T12:54:36.982Z,969.3
2017-12-29T12:55:40.603Z,969.3
2017-12-29T12:56:43.322Z,969.2
2017-12-29T12:57:48.528Z,969.3
2017-12-29T12:58:51.088Z,969.1
2017-12-29T12:59:54.068Z,969.1
2017-12-29T13:00:57.321Z,968.9
2017-12-29T13:02:00.314Z,969.1
2017-12-29T13:03:03.066Z,969.1
2017-12-29T13:04:05.647Z,969.1
2017-12-29T13:05:08.309Z,969
2017-12-29T13:06:11.075Z,968.8
2017-12-29T13:07:13.597Z,969
2017-12-29T13:08:16.355Z,968.8
2017-12-29T13:09:19.248Z,968.9
2017-12-29T13:10:22.660Z,968.9
2017-12-29T13:11:25.562Z,968.9
2017-12-29T13:12:28.212Z,968.9
2017-12-29T13:13:31.191Z,968.6
2017-12-29T13:14:34.049Z,968.8
2017-12-29T13:15:36.866Z,968.8
2017-12-29T13:16:39.625Z,968.8
2017-12-29T13:17:42.532Z,968.7
2017-12-29T13:18:45.283Z,968.5
2017-12-29T13:19:47.966Z,968.7
2017-12-29T13:20:50.802Z,968.5
2017-12-29T13:21:53.416Z,968.7
2017-12-29T13:22:56.450Z,968.7
2017-12-29T13:23:59.279Z,968.6
2017-12-29T13:25:02.064Z,968.6
2017-12-29T13:26:05.007Z,968.5
2017-12-29T13:27:07.798Z,968.5
2017-12-29T13:28:15.955Z,968.7
2017-12-29T13:29:19.754Z,968.7
2017-12-29T13:30:22.505Z,968.5
2017-12-29T13:31:25.183Z,968.6
2017-12-29T13:32:28.003Z,968.7
2017-12-29T13:33:30.850Z,968.7
2017-12-29T13:34:35.917Z,968.7
2017-12-29T13:35:38.605Z,968.7
2017-12-29T13:36:41.402Z,968.6
2017-12-29T13:37:44.378Z,968.6
2017-12-29T13:38:47.026Z,968.7
2017-12-29T13:39:49.773Z,968.6
2017-12-29T13:40:52.331Z,968.7
2017-12-29T13:41:55.212Z,968.7
2017-12-29T13:42:58.153Z,968.6
2017-12-29T13:44:01.343Z,968.6
2017-12-29T13:45:04.099Z,968.4
2017-12-29T13:46:07.826Z,968.6
2017-12-29T13:47:10.730Z,968.6
2017-12-29T13:48:13.396Z,968.6
2017-12-29T13:49:16.199Z,968.6
2017-12-29T13:50:19.386Z,968.5
2017-12-29T13:51:25.184Z,968.6
2017-12-29T13:52:29.360Z,968.6
2017-12-29T13:53:32.915Z,968.6
2017-12-29T13:54:35.632Z,968.6
2017-12-29T13:55:38.918Z,968.6
2017-12-29T13:56:41.630Z,968.6
2017-12-29T13:57:44.452Z,968.6
2017-12-29T13:58:47.239Z,968.5
2017-12-29T13:59:50.046Z,968.5
2017-12-29T14:00:52.846Z,968.5
2017-12-29T14:01:55.488Z,968.5